This is the latest recevied weather packets stored in our database for station/object SV5BYP-12. If no packets are shown the sender has not sent any weather packets the latest 10 day(s).
| Time | Temp. | Humidity | Pressure | Rain* | Wind** | Luminosity | Snow |
|---|---|---|---|---|---|---|---|
| 1777970521 | 33.33° C | 19% | 1015.8 hPa | - | - | - | - |
| 1777969921 | 33.89° C | 19% | 1015.7 hPa | - | - | - | - |
| 1777969327 | 35° C | 18% | 1015.8 hPa | - | - | - | - |
| 1777968720 | 36.11° C | 17% | 1015.9 hPa | - | - | - | - |
| 1777968120 | 34.44° C | 19% | 1015.9 hPa | - | - | - | - |
| 1777966920 | 34.44° C | 17% | 1015.8 hPa | - | - | - | - |
| 1777966320 | 33.89° C | 19% | 1015.7 hPa | - | - | - | - |
| 1777965720 | 23.33° C | 35% | 1015.7 hPa | - | - | - | - |
| 1777964784 | 25° C | 33% | 1015.6 hPa | - | - | - | - |
| 1777964187 | 23.89° C | 34% | 1015.4 hPa | - | - | - | - |
| 1777963581 | 23.89° C | 34% | 1015.4 hPa | - | - | - | - |
| 1777962381 | 29.44° C | 27% | 1015.6 hPa | - | - | - | - |
| 1777961780 | 30° C | 24% | 1015.5 hPa | - | - | - | - |
| 1777961180 | 30° C | 24% | 1015.5 hPa | - | - | - | - |
| 1777960580 | 26.67° C | 32% | 1015.6 hPa | - | - | - | - |
| 1777959980 | 27.22° C | 29% | 1015.4 hPa | - | - | - | - |
| 1777959347 | 25° C | 32% | 1015.4 hPa | - | - | - | - |
| 1777959322 | 24.44° C | 34% | 1015.3 hPa | - | - | - | - |
| 1777959288 | 24.44° C | 34% | 1015.3 hPa | - | - | - | - |
| 1777959255 | 23.89° C | 36% | 1015.4 hPa | - | - | - | - |
| 1777959221 | 23.33° C | 36% | 1015.3 hPa | - | - | - | - |
| 1777959175 | 23.89° C | 37% | 1015.3 hPa | - | - | - | - |
| 1777959076 | 24.44° C | 35% | 1015.4 hPa | - | - | - | - |
| 1777959043 | 25° C | 36% | 1015.3 hPa | - | - | - | - |
| 1777959002 | 24.44° C | 36% | 1015.3 hPa | - | - | - | - |
* Rain since midnight (hover to see other rain measurements)
** Current wind speed in m/s (hover to see current wind gust speed)